Time;durP1;ratioP1;P1;durP2;ratioP2;P2;SDS_P1;SDS_P2;PMS_P1;PMS_P2;Temp;Humidity;BMP_temperature;BMP_pressure;BME280_temperature;BME280_humidity;BME280_pressure;Samples;Min_cycle;Max_cycle;Signal;HPM_P1;HPM_P2
2024/01/07 00:00:18;;;;;;;4.20;2.70;;;4.00;99.90;;;4.62;100.00;97709.06;4983610;28;20547;-78
2024/01/07 00:02:47;;;;;;;3.37;2.37;;;4.00;99.90;;;4.65;100.00;97708.75;4983540;28;20863;-79
2024/01/07 00:05:16;;;;;;;3.37;2.40;;;4.10;99.90;;;4.68;100.00;97710.25;4984345;28;20468;-78
2024/01/07 00:07:44;;;;;;;3.43;2.70;;;4.10;99.90;;;4.65;100.00;97715.75;4983435;28;20464;-79
2024/01/07 00:10:13;;;;;;;4.30;2.60;;;4.00;99.90;;;4.65;100.00;97718.31;4982619;28;20472;-79
2024/01/07 00:12:42;;;;;;;5.00;3.43;;;4.00;99.90;;;4.61;100.00;97720.41;4983851;28;20490;-79
2024/01/07 00:15:11;;;;;;;3.97;2.73;;;3.90;99.90;;;4.63;100.00;97723.66;4984454;28;20466;-78
2024/01/07 00:17:39;;;;;;;4.80;3.07;;;4.00;99.90;;;4.58;100.00;97729.28;4983536;28;20473;-79
2024/01/07 00:20:11;;;;;;;5.23;4.23;;;4.00;99.90;;;4.46;100.00;97720.22;4983251;28;20467;-79
2024/01/07 00:22:39;;;;;;;3.97;3.20;;;3.90;99.90;;;4.49;100.00;97724.25;4981374;28;20979;-79
2024/01/07 00:25:09;;;;;;;3.80;2.73;;;3.90;99.90;;;4.47;100.00;97721.84;4981124;28;20475;-77
2024/01/07 00:27:37;;;;;;;5.60;3.87;;;3.80;99.90;;;4.47;100.00;97710.66;4982464;28;20462;-76
2024/01/07 00:30:08;;;;;;;5.50;3.53;;;3.80;99.90;;;4.42;100.00;97711.13;4983824;28;20472;-78
2024/01/07 00:32:36;;;;;;;5.90;3.40;;;3.80;99.90;;;4.41;100.00;97714.69;4980324;28;20498;-79
2024/01/07 00:35:05;;;;;;;7.50;4.10;;;3.90;99.90;;;4.40;100.00;97713.06;4982825;28;21204;-78
2024/01/07 00:37:36;;;;;;;4.93;3.70;;;3.90;99.90;;;4.39;100.00;97721.81;4982248;28;20471;-79
2024/01/07 00:40:05;;;;;;;4.60;3.70;;;3.80;99.90;;;4.14;100.00;97717.47;4984965;28;21015;-79
2024/01/07 00:42:34;;;;;;;5.40;3.37;;;3.50;99.90;;;4.10;100.00;97716.16;4983694;28;20557;-78
2024/01/07 00:45:02;;;;;;;4.63;3.50;;;3.50;99.90;;;4.13;100.00;97715.84;4982749;28;20592;-79
2024/01/07 00:47:31;;;;;;;4.53;3.47;;;3.40;99.90;;;4.18;100.00;97715.41;4985028;28;20471;-79
2024/01/07 00:49:59;;;;;;;3.77;3.27;;;3.60;99.90;;;4.25;100.00;97714.63;4983545;28;20467;-78
2024/01/07 00:52:28;;;;;;;4.07;3.37;;;3.60;99.90;;;4.26;100.00;97723.19;4984033;28;20510;-78
2024/01/07 00:54:58;;;;;;;7.00;3.30;;;3.70;99.90;;;4.17;100.00;97722.34;4984074;28;20474;-78
2024/01/07 00:57:26;;;;;;;4.50;3.20;;;3.60;99.90;;;4.24;100.00;97719.94;4984048;28;20495;-79
2024/01/07 00:59:55;;;;;;;6.10;4.17;;;3.70;99.90;;;4.20;100.00;97727.19;4985101;28;20478;-79
2024/01/07 01:02:23;;;;;;;6.50;4.00;;;3.70;99.90;;;4.23;100.00;97726.91;4984597;28;20479;-78
2024/01/07 01:04:52;;;;;;;6.20;3.53;;;3.70;99.90;;;4.25;100.00;97721.56;4982726;28;20480;-78
2024/01/07 01:07:21;;;;;;;6.47;4.20;;;3.70;99.90;;;4.29;100.00;97721.13;4983386;28;20555;-78
2024/01/07 01:09:49;;;;;;;7.67;4.33;;;3.70;99.90;;;4.33;100.00;97725.03;4984709;28;20463;-78
2024/01/07 01:12:19;;;;;;;5.37;4.13;;;3.80;99.90;;;4.32;100.00;97727.75;4985193;28;21012;-78
2024/01/07 01:14:47;;;;;;;7.50;3.77;;;3.70;99.90;;;4.13;100.00;97721.03;4984521;28;20463;-78
2024/01/07 01:17:16;;;;;;;5.37;3.60;;;3.60;99.90;;;4.12;100.00;97729.78;4984640;28;20482;-78
2024/01/07 01:19:44;;;;;;;4.73;3.43;;;3.60;99.90;;;4.19;100.00;97740.31;4983818;28;20970;-78
2024/01/07 01:22:13;;;;;;;6.60;4.10;;;3.60;99.90;;;4.01;100.00;97738.59;4983635;28;20841;-78
2024/01/07 01:24:43;;;;;;;6.07;4.13;;;3.50;99.90;;;3.98;100.00;97733.75;4985239;28;20457;-79
2024/01/07 01:27:12;;;;;;;4.70;4.13;;;3.50;99.90;;;3.99;100.00;97740.53;4983097;28;20479;-78
2024/01/07 01:29:41;;;;;;;5.47;4.20;;;3.50;99.90;;;4.04;100.00;97740.88;4984421;28;20467;-78
2024/01/07 01:32:10;;;;;;;7.43;4.73;;;3.50;99.90;;;4.10;100.00;97742.03;4983090;28;20499;-78
2024/01/07 01:34:40;;;;;;;6.90;4.20;;;3.50;99.90;;;4.03;100.00;97747.00;4984564;28;20543;-78
2024/01/07 01:37:10;;;;;;;5.40;3.90;;;3.50;99.90;;;4.04;100.00;97747.81;4983042;28;20955;-78
2024/01/07 01:39:41;;;;;;;6.90;4.40;;;3.40;99.90;;;4.05;100.00;97758.03;4983603;28;20467;-78
2024/01/07 01:42:10;;;;;;;7.93;5.53;;;3.50;99.90;;;4.04;100.00;97753.00;4984554;28;20478;-78
2024/01/07 01:44:38;;;;;;;10.13;5.13;;;3.40;99.90;;;4.05;100.00;97752.03;4984727;28;20486;-79
2024/01/07 01:47:09;;;;;;;10.17;6.30;;;3.50;99.90;;;4.03;100.00;97759.13;4983211;28;20506;-79
2024/01/07 01:49:38;;;;;;;13.53;5.90;;;3.50;99.90;;;3.94;100.00;97757.47;4984590;28;20464;-79
2024/01/07 01:52:07;;;;;;;9.47;4.93;;;3.30;99.90;;;4.03;100.00;97759.13;4982634;28;20510;-78
2024/01/07 01:54:36;;;;;;;9.70;5.93;;;3.40;99.90;;;4.04;100.00;97753.81;4983650;28;20486;-78
2024/01/07 01:57:05;;;;;;;12.37;6.03;;;3.40;99.90;;;4.02;100.00;97760.94;4983442;28;20467;-78
2024/01/07 01:59:35;;;;;;;10.30;5.90;;;3.40;99.90;;;4.01;100.00;97758.47;4984753;28;20468;-78
2024/01/07 02:02:04;;;;;;;8.97;5.13;;;3.30;99.90;;;4.04;100.00;97759.00;4982055;28;20486;-78
2024/01/07 02:04:35;;;;;;;9.30;5.23;;;3.40;99.90;;;3.85;100.00;97756.59;4982835;28;20818;-78
2024/01/07 02:07:04;;;;;;;10.30;6.10;;;3.30;99.90;;;3.89;100.00;97759.69;4984065;28;20470;-79
2024/01/07 02:09:32;;;;;;;15.27;5.70;;;3.30;99.90;;;3.87;100.00;97759.84;4983272;28;20940;-78
2024/01/07 02:12:05;;;;;;;12.27;5.70;;;3.30;99.90;;;3.80;100.00;97756.25;4982076;28;20553;-77
2024/01/07 02:14:34;;;;;;;11.43;5.80;;;3.20;99.90;;;3.86;100.00;97760.81;4982842;28;20463;-78
2024/01/07 02:17:02;;;;;;;9.60;5.70;;;3.30;99.90;;;3.81;100.00;97757.06;4983315;28;20475;-78
2024/01/07 02:19:31;;;;;;;10.50;5.80;;;3.30;99.90;;;3.83;100.00;97766.28;4983554;28;20466;-79
2024/01/07 02:22:01;;;;;;;7.70;5.03;;;3.30;99.90;;;3.88;100.00;97768.44;4980674;28;20483;-78
2024/01/07 02:24:32;;;;;;;9.50;5.03;;;3.30;99.90;;;3.90;100.00;97764.72;4982652;28;21096;-78
2024/01/07 02:27:02;;;;;;;10.60;4.90;;;3.40;99.90;;;3.91;100.00;97757.78;4981105;28;20689;-78
2024/01/07 02:29:30;;;;;;;8.63;5.00;;;3.40;99.90;;;3.90;100.00;97766.50;4982772;28;20910;-78
2024/01/07 02:31:59;;;;;;;7.47;4.77;;;3.40;99.90;;;3.90;100.00;97766.50;4982679;28;20490;-78
2024/01/07 02:34:27;;;;;;;5.90;3.70;;;3.40;99.90;;;3.92;100.00;97770.53;4983629;28;20467;-78
2024/01/07 02:36:56;;;;;;;8.47;5.07;;;3.40;99.90;;;3.96;100.00;97773.63;4982015;28;20961;-78
2024/01/07 02:39:24;;;;;;;8.37;5.30;;;3.40;99.90;;;3.99;100.00;97766.38;4980603;28;20496;-78
2024/01/07 02:41:54;;;;;;;5.73;4.07;;;3.50;99.90;;;3.92;100.00;97770.53;4979674;28;20842;-78
2024/01/07 02:44:23;;;;;;;8.47;4.60;;;3.50;99.90;;;3.93;100.00;97772.16;4982595;28;21181;-79
2024/01/07 02:46:51;;;;;;;8.47;4.83;;;3.40;99.90;;;3.93;100.00;97771.34;4980955;28;20472;-78
2024/01/07 02:49:20;;;;;;;5.67;4.47;;;3.40;99.90;;;3.95;100.00;97764.28;4981993;28;20818;-78
2024/01/07 02:51:49;;;;;;;12.53;5.13;;;3.40;99.90;;;3.97;100.00;97773.50;4983979;28;20553;-78
2024/01/07 02:54:18;;;;;;;7.43;4.40;;;3.40;99.90;;;4.02;100.00;97773.06;4983250;28;20513;-78
2024/01/07 02:56:47;;;;;;;7.90;4.33;;;3.40;99.90;;;4.04;100.00;97778.88;4982730;28;21149;-78
2024/01/07 02:59:17;;;;;;;7.43;4.27;;;3.40;99.90;;;4.00;100.00;97777.53;4982354;28;20467;-79
2024/01/07 03:01:45;;;;;;;8.27;5.03;;;3.40;99.90;;;3.97;100.00;97783.03;4981713;28;20473;-78
2024/01/07 03:04:17;;;;;;;8.93;4.63;;;3.30;99.90;;;3.94;100.00;97773.00;4981470;28;20551;-78
2024/01/07 03:06:46;;;;;;;7.90;5.40;;;3.30;99.90;;;3.95;100.00;97777.22;4982383;28;20486;-79
2024/01/07 03:09:14;;;;;;;6.60;4.77;;;3.30;99.90;;;3.95;100.00;97779.78;4980794;28;20471;-79
2024/01/07 03:11:42;;;;;;;8.03;4.07;;;3.30;99.90;;;3.91;100.00;97771.53;4979935;28;20471;-77
2024/01/07 03:14:12;;;;;;;5.60;3.53;;;3.30;99.90;;;3.87;100.00;97774.56;4982080;28;20507;-78
2024/01/07 03:16:42;;;;;;;4.70;3.80;;;3.30;99.90;;;3.83;100.00;97781.81;4981399;28;20467;-78
2024/01/07 03:19:10;;;;;;;9.20;4.30;;;3.30;99.90;;;3.86;100.00;97778.91;4982431;28;20503;-79
2024/01/07 03:21:39;;;;;;;4.83;3.47;;;3.20;99.90;;;3.94;100.00;97785.91;4979996;28;20467;-78
2024/01/07 03:24:07;;;;;;;5.10;3.63;;;3.40;99.90;;;3.93;100.00;97781.69;4981729;28;20467;-79
2024/01/07 03:26:36;;;;;;;5.83;3.47;;;3.30;99.90;;;3.97;100.00;97785.63;4982318;28;20900;-78
2024/01/07 03:29:05;;;;;;;5.53;3.20;;;3.30;99.90;;;3.93;100.00;97786.88;4981641;28;20474;-78
2024/01/07 03:31:33;;;;;;;5.40;3.53;;;3.40;99.90;;;4.00;100.00;97782.72;4981868;28;20459;-78
2024/01/07 03:34:03;;;;;;;5.87;3.80;;;3.40;99.90;;;4.06;100.00;97782.13;4981081;28;20525;-78
2024/01/07 03:36:32;;;;;;;5.63;4.03;;;3.50;99.90;;;4.11;100.00;97779.88;4981664;28;20460;-79
2024/01/07 03:39:00;;;;;;;7.20;3.90;;;3.50;99.90;;;4.05;100.00;97783.09;4983367;28;20502;-78
2024/01/07 03:41:29;;;;;;;6.33;3.87;;;3.50;99.90;;;4.07;100.00;97788.91;4985416;28;20472;-78
2024/01/07 03:43:57;;;;;;;5.87;3.90;;;3.50;99.90;;;4.07;100.00;97791.50;4985617;28;21115;-78
2024/01/07 03:46:26;;;;;;;6.10;3.57;;;3.50;99.90;;;4.04;100.00;97784.84;4984620;28;20498;-79
2024/01/07 03:48:55;;;;;;;5.93;3.60;;;3.40;99.90;;;4.04;100.00;97794.38;4986781;28;20909;-78
2024/01/07 03:51:25;;;;;;;5.40;4.07;;;3.40;99.90;;;4.05;100.00;97791.66;4985606;28;20558;-78
2024/01/07 03:53:54;;;;;;;6.30;4.00;;;3.50;99.90;;;4.04;100.00;97792.63;4985889;28;20555;-78
2024/01/07 03:56:22;;;;;;;7.70;3.60;;;3.50;99.90;;;4.10;100.00;97804.13;4984768;28;20467;-78
2024/01/07 03:58:51;;;;;;;7.07;4.20;;;3.50;99.90;;;4.00;100.00;97796.47;4984717;28;20463;-78
2024/01/07 04:01:19;;;;;;;7.43;4.40;;;3.40;99.90;;;4.02;100.00;97801.50;4984534;28;21333;-78
2024/01/07 04:03:48;;;;;;;9.10;4.93;;;3.40;99.90;;;3.97;100.00;97793.38;4984770;28;20517;-79
2024/01/07 04:06:17;;;;;;;10.73;4.30;;;3.30;99.90;;;3.92;100.00;97801.56;4984716;28;20553;-78
2024/01/07 04:08:47;;;;;;;8.03;4.80;;;3.30;99.90;;;3.92;100.00;97798.19;4986335;28;20476;-78
2024/01/07 04:11:15;;;;;;;8.83;4.63;;;3.30;99.90;;;3.96;100.00;97792.56;4984848;28;20471;-79
2024/01/07 04:13:44;;;;;;;8.03;5.10;;;3.40;99.90;;;3.86;100.00;97796.19;4984760;28;20508;-78
2024/01/07 04:16:19;;;;;;;9.17;5.00;;;3.20;99.90;;;3.82;100.00;97807.81;4986441;28;20468;-78
2024/01/07 04:18:48;;;;;;;7.23;5.30;;;3.30;99.90;;;3.88;100.00;97800.28;4984413;28;20841;-78
2024/01/07 04:21:21;;;;;;;9.57;5.03;;;3.40;99.90;;;3.79;100.00;97801.16;4985752;28;20455;-78
2024/01/07 04:23:51;;;;;;;9.03;5.17;;;3.30;99.90;;;3.83;100.00;97797.31;4986141;28;20554;-77
2024/01/07 04:26:20;;;;;;;9.60;5.17;;;3.30;99.90;;;3.77;100.00;97802.28;4983252;28;20540;-78
2024/01/07 04:28:48;;;;;;;7.53;4.53;;;3.30;99.90;;;3.73;100.00;97801.78;4984487;28;20995;-79
2024/01/07 04:31:17;;;;;;;6.90;4.10;;;3.30;99.90;;;3.72;100.00;97813.06;4985089;28;20475;-79
2024/01/07 04:33:46;;;;;;;5.40;3.47;;;3.20;99.90;;;3.68;100.00;97803.97;4985040;28;20894;-79
2024/01/07 04:36:14;;;;;;;9.20;4.70;;;3.20;99.90;;;3.66;100.00;97802.53;4984104;28;20469;-78
2024/01/07 04:38:43;;;;;;;6.30;4.30;;;3.20;99.90;;;3.65;100.00;97813.81;4984322;28;20470;-78
2024/01/07 04:41:13;;;;;;;32.03;4.80;;;3.10;99.90;;;3.67;100.00;97811.91;4985806;28;20528;-78
2024/01/07 04:43:43;;;;;;;7.00;4.50;;;3.20;99.90;;;3.69;100.00;97815.13;4985855;28;20882;-79
2024/01/07 04:46:12;;;;;;;8.37;4.50;;;3.20;99.90;;;3.68;100.00;97819.50;4983886;28;21023;-78
2024/01/07 04:48:41;;;;;;;6.53;3.83;;;3.20;99.90;;;3.66;100.00;97821.44;4986498;28;20506;-78
2024/01/07 04:51:09;;;;;;;6.53;4.27;;;3.10;99.90;;;3.66;100.00;97821.44;4983565;28;20467;-78
2024/01/07 04:53:38;;;;;;;7.20;4.70;;;3.10;99.90;;;3.65;100.00;97824.16;4985470;28;20493;-78
2024/01/07 04:56:07;;;;;;;6.37;4.30;;;3.10;99.90;;;3.65;100.00;97827.56;4984519;28;20993;-78
2024/01/07 04:58:37;;;;;;;7.50;4.90;;;3.10;99.90;;;3.64;100.00;97828.53;4983327;28;20487;-79
2024/01/07 05:01:05;;;;;;;6.00;3.97;;;3.10;99.90;;;3.61;100.00;97833.19;4985740;28;20482;-78
2024/01/07 05:03:35;;;;;;;5.73;3.40;;;3.10;99.90;;;3.63;100.00;97826.91;4984930;28;20536;-79
2024/01/07 05:06:04;;;;;;;4.80;3.57;;;3.20;99.90;;;3.64;100.00;97833.72;4983783;28;20502;-78
2024/01/07 05:08:33;;;;;;;5.80;3.90;;;3.10;99.90;;;3.63;100.00;97831.25;4984487;28;20467;-78
2024/01/07 05:11:01;;;;;;;9.47;4.53;;;3.00;99.90;;;3.73;100.00;97842.31;4983432;28;20540;-78
2024/01/07 05:13:30;;;;;;;6.23;4.23;;;3.10;99.90;;;3.65;100.00;97837.06;4984946;28;20591;-78
2024/01/07 05:16:00;;;;;;;7.67;3.83;;;3.10;99.90;;;3.70;100.00;97838.28;4983397;28;20475;-78
2024/01/07 05:18:28;;;;;;;5.83;3.77;;;3.10;99.90;;;3.76;100.00;97842.03;4984828;28;20463;-78
2024/01/07 05:20:57;;;;;;;6.17;4.00;;;3.20;99.90;;;3.67;100.00;97843.75;4983343;28;20471;-78
2024/01/07 05:23:25;;;;;;;7.30;3.67;;;3.00;99.90;;;3.68;100.00;97852.31;4985535;28;20481;-79
2024/01/07 05:25:54;;;;;;;4.77;3.53;;;3.10;99.90;;;3.64;100.00;97850.97;4983184;28;20473;-80
2024/01/07 05:28:22;;;;;;;8.40;4.30;;;3.00;99.90;;;3.69;100.00;97856.50;4984327;28;20588;-79
2024/01/07 05:30:51;;;;;;;6.73;4.13;;;3.00;99.90;;;3.74;100.00;97862.06;4981957;28;20483;-78
2024/01/07 05:33:21;;;;;;;5.63;3.43;;;3.10;99.90;;;3.69;100.00;97869.44;4985178;28;20866;-78
2024/01/07 05:35:49;;;;;;;7.07;4.47;;;3.10;99.90;;;3.64;100.00;97861.31;4985629;28;20467;-78
2024/01/07 05:38:18;;;;;;;7.70;3.93;;;3.10;99.90;;;3.66;100.00;97852.44;4982625;28;20475;-78
2024/01/07 05:40:46;;;;;;;7.40;4.93;;;3.10;99.90;;;3.60;100.00;97852.25;4984515;28;20468;-78
2024/01/07 05:43:15;;;;;;;7.50;3.80;;;3.00;99.90;;;3.58;100.00;97852.38;4985455;28;20517;-78
2024/01/07 05:45:43;;;;;;;6.80;3.47;;;3.10;99.90;;;3.66;100.00;97856.81;4984445;28;20510;-78
2024/01/07 05:48:12;;;;;;;5.83;4.27;;;3.20;99.90;;;3.69;100.00;97857.31;4983636;28;20565;-79
2024/01/07 05:50:42;;;;;;;7.17;4.20;;;3.20;99.90;;;3.66;100.00;97856.81;4983665;28;20521;-78
2024/01/07 05:53:10;;;;;;;8.63;4.33;;;3.20;99.90;;;3.65;100.00;97862.94;4984704;28;21432;-78
2024/01/07 05:55:39;;;;;;;8.27;4.30;;;3.20;99.90;;;3.65;100.00;97868.09;4984218;28;20504;-78
2024/01/07 05:58:07;;;;;;;5.50;3.70;;;3.20;99.90;;;3.60;100.00;97870.34;4982787;28;20474;-78
2024/01/07 06:00:36;;;;;;;7.03;3.77;;;3.10;99.90;;;3.53;100.00;97870.94;4984337;28;20483;-78
2024/01/07 06:03:04;;;;;;;6.10;3.63;;;3.10;99.90;;;3.55;100.00;97868.19;4983351;28;20469;-78
2024/01/07 06:05:33;;;;;;;6.13;3.53;;;3.00;99.90;;;3.57;100.00;97873.22;4982020;28;20980;-78
2024/01/07 06:08:03;;;;;;;9.57;4.27;;;3.00;99.90;;;3.63;100.00;97875.19;4980216;28;20462;-79
2024/01/07 06:10:32;;;;;;;7.20;4.00;;;3.00;99.90;;;3.60;100.00;97878.91;4979610;28;20552;-78
2024/01/07 06:13:00;;;;;;;15.47;7.87;;;3.00;99.90;;;3.60;100.00;97880.66;4980288;28;20839;-76
2024/01/07 06:15:29;;;;;;;7.23;4.23;;;3.10;99.90;;;3.64;100.00;97879.41;4980305;28;20512;-79
2024/01/07 06:17:57;;;;;;;5.77;3.97;;;3.10;99.90;;;3.68;100.00;97883.34;4977700;28;20459;-78
2024/01/07 06:20:26;;;;;;;6.33;3.73;;;3.20;99.90;;;3.68;100.00;97885.94;4952486;28;20461;-78
2024/01/07 06:22:54;;;;;;;4.97;3.40;;;3.20;99.90;;;3.72;100.00;97887.22;4976635;28;20497;-79
2024/01/07 06:25:26;;;;;;;6.90;3.87;;;3.20;99.90;;;3.66;100.00;97886.06;4960367;28;20473;-78
2024/01/07 06:27:54;;;;;;;5.67;4.00;;;3.10;99.90;;;3.62;100.00;97883.91;4957280;28;20580;-78
2024/01/07 06:30:23;;;;;;;4.70;3.50;;;3.10;99.90;;;3.65;100.00;97891.38;4959407;28;20984;-78
2024/01/07 06:32:53;;;;;;;4.10;2.93;;;3.10;99.90;;;3.65;100.00;97893.94;4961913;28;20829;-78
2024/01/07 06:35:22;;;;;;;6.67;4.00;;;3.20;99.90;;;3.59;100.00;97897.94;4961313;28;20495;-78
2024/01/07 06:37:51;;;;;;;6.67;4.27;;;3.10;99.90;;;3.62;100.00;97902.00;4956989;28;20715;-78
2024/01/07 06:40:19;;;;;;;6.30;4.60;;;3.10;99.90;;;3.63;100.00;97896.69;4958697;28;20465;-77
2024/01/07 06:42:49;;;;;;;6.20;3.63;;;3.10;99.90;;;3.64;100.00;97906.09;4961351;28;20471;-79
2024/01/07 06:45:18;;;;;;;5.70;3.70;;;3.10;99.90;;;3.56;100.00;97908.59;4959348;28;20966;-77
2024/01/07 06:47:47;;;;;;;4.60;3.30;;;3.10;99.90;;;3.57;100.00;97914.56;4962388;28;20471;-76
2024/01/07 06:50:16;;;;;;;8.27;3.40;;;3.00;99.90;;;3.61;100.00;97914.13;4963837;28;20882;-78
2024/01/07 06:52:44;;;;;;;5.97;4.00;;;3.10;99.90;;;3.63;100.00;97914.78;4964305;28;20472;-77
2024/01/07 06:55:13;;;;;;;7.47;4.10;;;3.10;99.90;;;3.59;100.00;97913.47;4962822;28;20590;-78
2024/01/07 06:57:41;;;;;;;6.13;3.27;;;3.10;99.90;;;3.60;100.00;97922.03;4962615;28;20963;-77
2024/01/07 07:00:13;;;;;;;5.93;3.90;;;3.00;99.90;;;3.54;100.00;97921.66;4963550;28;20557;-77
2024/01/07 07:02:42;;;;;;;5.30;3.60;;;3.10;99.90;;;3.48;100.00;97924.00;4963343;28;20462;-77
2024/01/07 07:05:11;;;;;;;5.57;3.23;;;3.10;99.90;;;3.50;100.00;97927.28;4962371;28;20462;-77
2024/01/07 07:07:39;;;;;;;10.90;4.10;;;3.10;99.90;;;3.49;100.00;97917.88;4963007;28;20491;-77
2024/01/07 07:10:09;;;;;;;5.57;3.40;;;3.10;99.90;;;3.45;100.00;97926.88;4961849;28;20459;-77
2024/01/07 07:12:38;;;;;;;5.47;3.37;;;3.00;99.90;;;3.45;100.00;97938.03;4961261;28;21120;-77
2024/01/07 07:15:09;;;;;;;4.37;3.00;;;3.00;99.90;;;3.39;100.00;97930.88;4964729;28;20490;-77
2024/01/07 07:17:40;;;;;;;5.33;3.27;;;3.10;99.90;;;3.46;100.00;97934.50;4965761;28;20954;-78
2024/01/07 07:20:10;;;;;;;4.87;3.20;;;3.00;99.90;;;3.49;100.00;97935.97;4966674;28;20474;-78
2024/01/07 07:22:39;;;;;;;5.57;3.23;;;3.10;99.90;;;3.51;100.00;97932.28;4966930;28;20543;-78
2024/01/07 07:25:08;;;;;;;5.87;3.07;;;3.10;99.90;;;3.49;100.00;97939.38;4966276;28;20470;-78
2024/01/07 07:27:38;;;;;;;4.67;3.27;;;3.10;99.90;;;3.39;100.00;97943.78;4967979;28;20555;-78
2024/01/07 07:30:08;;;;;;;3.90;3.00;;;3.00;99.90;;;3.38;100.00;97946.50;4966663;28;20463;-78
2024/01/07 07:32:36;;;;;;;3.40;3.10;;;2.90;99.90;;;3.44;100.00;97951.91;4965919;28;20517;-78
2024/01/07 07:35:08;;;;;;;4.03;3.13;;;3.00;99.90;;;3.45;100.00;97953.53;4966230;28;20498;-79
2024/01/07 07:37:38;;;;;;;3.50;2.50;;;3.00;99.90;;;3.37;100.00;97958.59;4965930;28;20478;-79
2024/01/07 07:40:08;;;;;;;7.53;3.70;;;2.90;99.90;;;3.39;100.00;97971.41;4960631;28;20505;-78
2024/01/07 07:42:36;;;;;;;91.47;41.07;;;3.00;99.90;;;3.38;100.00;97969.75;4963540;28;20478;-77
2024/01/07 07:45:07;;;;;;;7.73;3.73;;;2.90;99.90;;;3.41;100.00;97965.13;4962506;28;20479;-78
2024/01/07 07:47:35;;;;;;;3.90;2.70;;;2.90;99.90;;;3.49;100.00;97967.81;4962045;28;20534;-78
2024/01/07 07:50:06;;;;;;;5.30;2.97;;;2.90;99.90;;;3.51;100.00;97973.63;4966243;28;20540;-78
2024/01/07 07:52:35;;;;;;;4.80;2.57;;;3.10;99.90;;;3.42;100.00;97969.34;4964553;28;20494;-79
2024/01/07 07:55:05;;;;;;;3.60;2.50;;;2.90;99.90;;;3.47;100.00;97981.84;4963650;28;20586;-79
2024/01/07 07:57:35;;;;;;;2.87;2.33;;;3.10;99.90;;;3.47;100.00;97982.63;4964623;28;20996;-78
2024/01/07 08:00:05;;;;;;;2.87;2.47;;;3.00;99.90;;;3.48;100.00;97986.03;4963289;28;20470;-78
2024/01/07 08:02:34;;;;;;;3.10;2.40;;;2.90;99.90;;;3.51;100.00;97989.13;4963430;28;20469;-78
2024/01/07 08:05:03;;;;;;;3.40;3.10;;;3.00;99.90;;;3.50;100.00;97987.53;4962255;28;20466;-78
2024/01/07 08:07:34;;;;;;;3.57;2.90;;;3.00;99.90;;;3.47;100.00;97995.53;4963149;28;20481;-78
2024/01/07 08:10:06;;;;;;;3.00;2.33;;;3.00;99.90;;;3.49;100.00;98005.75;4964771;28;20469;-78
2024/01/07 08:12:36;;;;;;;3.50;2.23;;;3.00;99.90;;;3.46;100.00;97996.53;4960422;28;21039;-79
2024/01/07 08:15:09;;;;;;;2.93;2.40;;;3.00;99.90;;;3.48;100.00;98004.94;4962423;28;20822;-78
2024/01/07 08:17:38;;;;;;;2.50;2.30;;;3.00;99.90;;;3.59;100.00;98009.09;4962991;28;21032;-78
2024/01/07 08:20:08;;;;;;;2.30;2.10;;;3.10;99.90;;;3.63;100.00;98010.44;4966242;28;20529;-79
2024/01/07 08:22:38;;;;;;;3.70;2.33;;;3.10;99.90;;;3.69;100.00;98016.81;4964686;28;20542;-79
2024/01/07 08:25:13;;;;;;;4.13;2.30;;;3.20;99.90;;;3.63;100.00;98019.97;4965496;28;20471;-78
2024/01/07 08:27:43;;;;;;;3.67;2.77;;;3.10;99.90;;;3.52;100.00;98021.78;4964068;28;20902;-79
2024/01/07 08:30:13;;;;;;;7.93;3.00;;;2.90;99.90;;;3.51;100.00;98020.16;4962733;28;20470;-79
2024/01/07 08:32:43;;;;;;;3.93;3.20;;;2.90;99.90;;;3.59;100.00;98031.56;4961885;28;21038;-83
2024/01/07 08:35:12;;;;;;;4.13;2.50;;;3.00;99.90;;;3.63;100.00;98035.47;4963754;28;20498;-78
2024/01/07 08:37:44;;;;;;;4.27;2.43;;;3.10;99.90;;;3.57;100.00;98034.28;4961908;28;20542;-78
2024/01/07 08:40:14;;;;;;;2.63;2.23;;;3.00;99.90;;;3.62;100.00;98039.00;4964561;28;20470;-78
2024/01/07 08:42:42;;;;;;;3.30;2.30;;;3.10;99.90;;;3.54;100.00;98040.53;4962996;28;20457;-78
2024/01/07 08:45:11;;;;;;;3.93;2.57;;;3.10;99.90;;;3.59;100.00;98036.72;4963148;28;20477;-79
2024/01/07 08:47:40;;;;;;;3.63;2.83;;;3.10;99.90;;;3.54;100.00;98035.38;4961710;28;20497;-78
2024/01/07 08:50:13;;;;;;;2.80;2.60;;;3.10;99.90;;;3.51;100.00;98040.84;4964450;28;20463;-79
2024/01/07 08:52:43;;;;;;;3.60;2.60;;;3.00;99.90;;;3.55;100.00;98042.19;4961776;28;20570;-79
2024/01/07 08:55:12;;;;;;;4.73;2.90;;;3.20;99.90;;;3.64;100.00;98050.03;4964837;28;20479;-78
2024/01/07 08:57:42;;;;;;;4.20;2.90;;;3.10;99.90;;;3.65;100.00;98054.22;4963542;28;20476;-79
2024/01/07 09:00:12;;;;;;;4.47;2.53;;;3.10;99.90;;;3.66;100.00;98048.94;4962310;28;20517;-79
2024/01/07 09:02:40;;;;;;;3.10;2.40;;;3.10;99.90;;;3.62;100.00;98054.53;4963412;28;20482;-79
2024/01/07 09:05:13;;;;;;;16.43;8.30;;;3.10;99.90;;;3.54;100.00;98066.38;4960189;28;20526;-78
2024/01/07 09:07:43;;;;;;;4.17;2.67;;;2.90;99.90;;;3.54;100.00;98055.22;4962306;28;20974;-79
2024/01/07 09:10:13;;;;;;;4.10;3.00;;;2.90;99.90;;;3.61;100.00;98060.69;4962084;28;20477;-79
2024/01/07 09:12:42;;;;;;;4.03;2.50;;;3.00;99.90;;;3.56;100.00;98071.44;4963953;28;20578;-78
2024/01/07 09:15:11;;;;;;;4.00;3.03;;;2.90;99.90;;;3.61;100.00;98073.59;4963068;28;20486;-79
2024/01/07 09:17:40;;;;;;;3.60;2.87;;;3.00;99.90;;;3.69;100.00;98073.69;4962763;28;20473;-80
2024/01/07 09:20:11;;;;;;;4.40;2.40;;;3.10;99.90;;;3.73;100.00;98070.69;4960087;28;20476;-80
2024/01/07 09:22:40;;;;;;;2.90;2.60;;;3.20;99.90;;;3.68;100.00;98079.84;4962297;28;20531;-79
2024/01/07 09:25:11;;;;;;;4.23;3.10;;;3.10;99.90;;;3.63;100.00;98089.78;4962546;28;21405;-79
2024/01/07 09:27:39;;;;;;;3.43;2.93;;;3.00;99.90;;;3.65;100.00;98095.59;4963339;28;20477;-79
2024/01/07 09:30:10;;;;;;;5.57;3.47;;;3.10;99.90;;;3.63;100.00;98105.28;4962208;28;20501;-80
2024/01/07 09:32:39;;;;;;;9.70;5.40;;;3.10;99.90;;;3.63;100.00;98105.28;4961866;28;20471;-78
2024/01/07 09:35:08;;;;;;;4.30;3.50;;;3.10;99.90;;;3.66;100.00;98105.00;4961892;28;20555;-79
2024/01/07 09:37:37;;;;;;;4.20;3.40;;;3.10;99.90;;;3.60;100.00;98102.97;4961757;28;20557;-79
2024/01/07 09:40:07;;;;;;;5.83;3.80;;;3.10;99.90;;;3.53;100.00;98105.31;4961566;28;20459;-79
2024/01/07 09:42:40;;;;;;;6.50;3.43;;;2.90;99.90;;;3.54;100.00;98101.75;4961057;28;20472;-80
2024/01/07 09:45:13;;;;;;;5.30;3.33;;;3.00;99.90;;;3.58;100.00;98099.72;4960714;28;20478;-79
2024/01/07 09:47:43;;;;;;;4.90;3.20;;;3.10;99.90;;;3.53;100.00;98100.97;4962401;28;20471;-80
2024/01/07 09:50:13;;;;;;;4.30;3.13;;;3.00;99.90;;;3.61;100.00;98107.22;4961473;28;20467;-80
2024/01/07 09:52:45;;;;;;;3.87;2.93;;;3.10;99.90;;;3.60;100.00;98103.81;4962373;28;20473;-79
2024/01/07 09:55:22;;;;;;;81.17;34.77;;;3.00;99.90;;;3.69;100.00;98104.72;4963775;28;20537;-80
2024/01/07 09:57:52;;;;;;;7.80;4.50;;;3.10;99.90;;;3.76;100.00;98103.19;4963443;28;21001;-79
2024/01/07 10:00:21;;;;;;;6.40;4.17;;;3.20;99.90;;;3.80;100.00;98107.13;4961154;28;20944;-79
2024/01/07 10:02:50;;;;;;;4.90;2.93;;;3.20;99.90;;;3.79;100.00;98113.22;4960523;28;21194;-79
2024/01/07 10:05:18;;;;;;;4.93;3.10;;;3.30;99.90;;;3.73;100.00;98104.28;4962115;28;20463;-80
2024/01/07 10:07:47;;;;;;;3.77;2.63;;;3.30;99.90;;;3.76;100.00;98110.94;4963240;28;20470;-80
2024/01/07 10:10:17;;;;;;;3.60;2.93;;;3.30;99.90;;;3.71;100.00;98116.56;4963335;28;20472;-80
2024/01/07 10:12:47;;;;;;;3.50;2.80;;;3.30;99.90;;;3.66;100.00;98115.34;4964070;28;20495;-80
2024/01/07 10:15:17;;;;;;;5.97;3.60;;;3.20;99.90;;;3.67;100.00;98106.63;4962526;28;20545;-80
2024/01/07 10:17:48;;;;;;;4.60;3.70;;;3.20;99.90;;;3.75;100.00;98111.91;4962284;28;20518;-79
2024/01/07 10:20:19;;;;;;;5.43;3.40;;;3.30;99.90;;;3.62;100.00;98119.16;4964926;28;20460;-80
2024/01/07 10:22:51;;;;;;;4.87;3.60;;;3.10;99.90;;;3.69;100.00;98117.63;4961059;28;20467;-78
2024/01/07 10:25:20;;;;;;;6.20;3.90;;;3.10;99.90;;;3.72;100.00;98119.94;4961729;28;20493;-79
2024/01/07 10:27:49;;;;;;;4.57;3.60;;;3.20;99.90;;;3.79;100.00;98123.56;4962552;28;20471;-78
2024/01/07 10:30:21;;;;;;;5.93;3.87;;;3.30;99.90;;;3.81;100.00;98122.50;4962883;28;20969;-78
2024/01/07 10:32:50;;;;;;;7.17;4.00;;;3.20;99.90;;;3.82;100.00;98118.94;4961654;28;20850;-78